Time;durP1;ratioP1;P1;durP2;ratioP2;P2;SDS_P1;SDS_P2;PMS_P1;PMS_P2;Temp;Humidity;BMP_temperature;BMP_pressure;BME280_temperature;BME280_humidity;BME280_pressure;Samples;Min_cycle;Max_cycle;Signal;HPM_P1;HPM_P2
2021/11/21 00:00:31;;;;;;;25.80;16.58;;;;;;;;;;5012062;28;20030;-81
2021/11/21 00:02:58;;;;;;;26.38;17.17;;;;;;;;;;5013490;28;20045;-84
2021/11/21 00:05:24;;;;;;;24.55;16.80;;;;;;;;;;5006715;28;20108;-84
2021/11/21 00:08:11;;;;;;;25.90;16.80;;;;;;;;;;5004405;28;20179;-81
2021/11/21 00:10:36;;;;;;;26.02;16.70;;;;;;;;;;4975617;28;20066;-82
2021/11/21 00:13:04;;;;;;;29.50;17.13;;;;;;;;;;4973643;28;20061;-80
2021/11/21 00:15:29;;;;;;;27.27;17.30;;;;;;;;;;4986304;28;20116;-80
2021/11/21 00:17:54;;;;;;;27.27;17.83;;;;;;;;;;4970329;28;20121;-77
2021/11/21 00:21:10;;;;;;;27.48;16.85;;;;;;;;;;4973692;28;20084;-80
2021/11/21 00:23:35;;;;;;;26.42;17.13;;;;;;;;;;4932096;28;20034;-81
2021/11/21 00:26:08;;;;;;;27.58;16.95;;;;;;;;;;4984973;28;20033;-77
2021/11/21 00:28:33;;;;;;;;;;;;;;;;;;4968179;28;20050;-77
2021/11/21 00:30:59;;;;;;;26.17;16.65;;;;;;;;;;4972243;28;20428;-78
2021/11/21 00:33:24;;;;;;;23.98;16.10;;;;;;;;;;4987542;28;20035;-77
2021/11/21 00:35:50;;;;;;;26.45;16.98;;;;;;;;;;4973674;28;20034;-82
2021/11/21 00:38:15;;;;;;;30.20;16.80;;;;;;;;;;4992893;28;20034;-80
2021/11/21 00:40:41;;;;;;;24.50;16.17;;;;;;;;;;4969951;28;20030;-83
2021/11/21 00:43:06;;;;;;;26.33;16.83;;;;;;;;;;4972700;28;20014;-82
2021/11/21 00:45:32;;;;;;;25.55;16.30;;;;;;;;;;4974578;28;20466;-81
2021/11/21 00:48:19;;;;;;;25.13;16.20;;;;;;;;;;4991371;28;20030;-84
2021/11/21 00:50:44;;;;;;;27.73;16.33;;;;;;;;;;4984977;28;20042;-81
2021/11/21 00:53:10;;;;;;;24.15;15.65;;;;;;;;;;4984989;28;20053;-80
2021/11/21 00:55:42;;;;;;;28.10;16.65;;;;;;;;;;4993533;28;20038;-81
2021/11/21 00:58:10;;;;;;;24.58;15.45;;;;;;;;;;4974067;28;20058;-79
2021/11/21 01:00:38;;;;;;;26.38;15.65;;;;;;;;;;4968608;28;20045;-85
2021/11/21 01:03:07;;;;;;;25.77;16.15;;;;;;;;;;4992253;28;20050;-81
2021/11/21 01:05:33;;;;;;;26.67;15.73;;;;;;;;;;4974334;28;20056;-82
2021/11/21 01:07:58;;;;;;;26.48;15.68;;;;;;;;;;4975918;28;20086;-77
2021/11/21 01:10:24;;;;;;;24.98;15.52;;;;;;;;;;5007031;28;20034;-77
2021/11/21 01:12:53;;;;;;;26.40;16.52;;;;;;;;;;4996041;28;20025;-84
2021/11/21 01:15:20;;;;;;;27.20;16.15;;;;;;;;;;4994407;28;20029;-80
2021/11/21 01:17:47;;;;;;;28.27;16.40;;;;;;;;;;5009934;28;20134;-80
2021/11/21 01:20:12;;;;;;;28.63;16.63;;;;;;;;;;4993488;28;20036;-77
2021/11/21 01:22:38;;;;;;;26.42;16.15;;;;;;;;;;4994584;28;20033;-86
2021/11/21 01:25:22;;;;;;;26.70;15.98;;;;;;;;;;4992115;28;20022;-84
2021/11/21 01:27:49;;;;;;;24.98;15.85;;;;;;;;;;5003652;28;20059;-82
2021/11/21 01:30:26;;;;;;;29.33;16.38;;;;;;;;;;4991122;28;20030;-82
2021/11/21 01:32:52;;;;;;;29.83;16.33;;;;;;;;;;4991794;28;20034;-80
2021/11/21 01:35:17;;;;;;;26.33;15.90;;;;;;;;;;4991553;28;20040;-77
2021/11/21 01:37:42;;;;;;;27.52;16.02;;;;;;;;;;5008790;28;20029;-84
2021/11/21 01:40:11;;;;;;;27.02;16.38;;;;;;;;;;4991510;28;20068;-82
2021/11/21 01:42:37;;;;;;;27.83;16.83;;;;;;;;;;4992713;28;20112;-82
2021/11/21 01:45:05;;;;;;;26.65;16.02;;;;;;;;;;4993692;28;20072;-82
2021/11/21 01:47:31;;;;;;;27.05;16.10;;;;;;;;;;4992717;28;20501;-80
2021/11/21 01:49:57;;;;;;;28.63;16.52;;;;;;;;;;5006797;28;20052;-77
2021/11/21 01:52:22;;;;;;;28.70;16.50;;;;;;;;;;5007561;28;20030;-83
2021/11/21 01:54:48;;;;;;;26.92;16.30;;;;;;;;;;4991410;28;20022;-82
2021/11/21 01:57:13;;;;;;;26.73;16.15;;;;;;;;;;5008776;28;20709;-85
2021/11/21 01:59:39;;;;;;;26.58;15.18;;;;;;;;;;4991642;28;20457;-82
2021/11/21 02:04:39;;;;;;;28.60;16.48;;;;;;;;;;5772082;23;20057;-84
2021/11/21 02:09:40;;;;;;;27.88;16.05;;;;;;;;;;4512220;26;20515;-82
2021/11/21 02:12:06;;;;;;;27.13;16.15;;;;;;;;;;5011840;28;20025;-80
2021/11/21 02:14:31;;;;;;;27.88;15.43;;;;;;;;;;5011373;28;20029;-82
2021/11/21 02:16:57;;;;;;;26.15;15.45;;;;;;;;;;5012531;28;20042;-78
2021/11/21 02:19:22;;;;;;;28.55;15.80;;;;;;;;;;5013464;28;20033;-79
2021/11/21 02:21:48;;;;;;;26.63;15.20;;;;;;;;;;5012190;28;20025;-84
2021/11/21 02:24:14;;;;;;;26.15;15.80;;;;;;;;;;5013269;28;20034;-84
2021/11/21 02:26:39;;;;;;;28.67;16.63;;;;;;;;;;5012574;28;20110;-82
2021/11/21 02:29:04;;;;;;;28.92;16.60;;;;;;;;;;5009198;28;20120;-82
2021/11/21 02:31:31;;;;;;;28.27;16.83;;;;;;;;;;5007945;28;20029;-77
2021/11/21 02:33:56;;;;;;;31.10;17.38;;;;;;;;;;5011306;28;20045;-85
2021/11/21 02:36:23;;;;;;;30.13;16.15;;;;;;;;;;5009261;28;20027;-85
2021/11/21 02:38:48;;;;;;;28.88;15.65;;;;;;;;;;5013648;28;20029;-77
2021/11/21 02:41:15;;;;;;;29.23;15.73;;;;;;;;;;5011312;28;20052;-77
2021/11/21 02:43:43;;;;;;;28.35;15.70;;;;;;;;;;5015029;28;20033;-80
2021/11/21 02:46:09;;;;;;;28.45;16.25;;;;;;;;;;5011854;28;20665;-77
2021/11/21 02:48:35;;;;;;;27.60;15.55;;;;;;;;;;5007859;28;20030;-77
2021/11/21 02:51:03;;;;;;;29.52;16.30;;;;;;;;;;5012682;28;20049;-80
2021/11/21 02:53:30;;;;;;;31.08;15.93;;;;;;;;;;5015619;28;20511;-82
2021/11/21 02:55:58;;;;;;;31.10;16.17;;;;;;;;;;5015064;28;20116;-85
2021/11/21 02:58:25;;;;;;;32.45;16.67;;;;;;;;;;5014715;28;20033;-78
2021/11/21 03:00:51;;;;;;;26.63;15.07;;;;;;;;;;5016154;28;20064;-82
2021/11/21 03:03:17;;;;;;;28.50;15.98;;;;;;;;;;5014529;28;20029;-85
2021/11/21 03:05:42;;;;;;;35.15;17.27;;;;;;;;;;5017566;28;20025;-84
2021/11/21 03:08:07;;;;;;;29.70;15.75;;;;;;;;;;5012040;28;20046;-82
2021/11/21 03:10:34;;;;;;;27.90;15.52;;;;;;;;;;5016902;28;20026;-85
2021/11/21 03:13:02;;;;;;;28.92;16.27;;;;;;;;;;5013364;28;20026;-80
2021/11/21 03:15:28;;;;;;;28.10;15.85;;;;;;;;;;5009574;28;20485;-82
2021/11/21 03:17:54;;;;;;;28.52;15.85;;;;;;;;;;5016308;28;20111;-77
2021/11/21 03:20:28;;;;;;;31.02;16.85;;;;;;;;;;5013161;28;20034;-77
2021/11/21 03:22:55;;;;;;;25.60;14.55;;;;;;;;;;5015677;28;20022;-77
2021/11/21 03:25:21;;;;;;;30.55;16.73;;;;;;;;;;5014426;28;20036;-77
2021/11/21 03:27:47;;;;;;;29.50;15.95;;;;;;;;;;5015032;28;20108;-78
2021/11/21 03:30:16;;;;;;;28.92;15.20;;;;;;;;;;5013818;28;20477;-85
2021/11/21 03:32:41;;;;;;;33.38;17.23;;;;;;;;;;5006833;28;20485;-82
2021/11/21 03:35:08;;;;;;;27.15;15.85;;;;;;;;;;5015454;28;20091;-80
2021/11/21 03:37:35;;;;;;;32.72;16.38;;;;;;;;;;5014395;28;20030;-79
2021/11/21 03:40:01;;;;;;;31.17;16.05;;;;;;;;;;5024908;28;20084;-84
2021/11/21 03:42:26;;;;;;;32.25;17.55;;;;;;;;;;5010193;28;20026;-84
2021/11/21 03:44:52;;;;;;;27.58;15.48;;;;;;;;;;5012671;28;20056;-81
2021/11/21 03:47:17;;;;;;;31.73;16.02;;;;;;;;;;5012820;28;20058;-85
2021/11/21 03:49:43;;;;;;;32.45;17.52;;;;;;;;;;5015367;28;20041;-82
2021/11/21 03:52:08;;;;;;;33.85;17.35;;;;;;;;;;5011418;28;20030;-84
2021/11/21 03:54:34;;;;;;;31.25;16.55;;;;;;;;;;5008796;28;20488;-77
2021/11/21 03:57:00;;;;;;;31.33;16.75;;;;;;;;;;5014479;28;20296;-81
2021/11/21 03:59:25;;;;;;;33.28;17.65;;;;;;;;;;5015023;28;20056;-77
2021/11/21 04:01:51;;;;;;;36.03;18.48;;;;;;;;;;5005931;28;20083;-80
2021/11/21 04:04:18;;;;;;;32.00;17.27;;;;;;;;;;5012516;28;20053;-84
2021/11/21 04:06:43;;;;;;;33.45;17.02;;;;;;;;;;5010823;28;20026;-77
2021/11/21 04:09:09;;;;;;;31.85;17.55;;;;;;;;;;5010655;28;20181;-80
2021/11/21 04:11:34;;;;;;;35.08;17.75;;;;;;;;;;5019330;28;21843;-82
2021/11/21 04:14:00;;;;;;;32.72;17.48;;;;;;;;;;5015361;28;20104;-80
2021/11/21 04:16:27;;;;;;;31.85;17.02;;;;;;;;;;5013492;28;20065;-82
2021/11/21 04:18:53;;;;;;;31.67;15.82;;;;;;;;;;5013486;28;20459;-85
2021/11/21 04:21:18;;;;;;;32.40;16.88;;;;;;;;;;5017732;28;20101;-79
2021/11/21 04:23:44;;;;;;;32.17;17.00;;;;;;;;;;5013220;28;20029;-79
2021/11/21 04:26:09;;;;;;;36.08;17.25;;;;;;;;;;5014990;28;20503;-81
2021/11/21 04:28:36;;;;;;;32.15;17.67;;;;;;;;;;5021009;28;20040;-80
2021/11/21 04:31:02;;;;;;;32.95;17.70;;;;;;;;;;5017199;28;20021;-77
2021/11/21 04:33:27;;;;;;;35.83;18.38;;;;;;;;;;5013488;28;20092;-85
2021/11/21 04:35:53;;;;;;;33.83;18.75;;;;;;;;;;5009265;28;20477;-80
2021/11/21 04:38:20;;;;;;;34.60;18.27;;;;;;;;;;5011589;28;20037;-77
2021/11/21 04:40:45;;;;;;;34.03;17.83;;;;;;;;;;5015277;28;20034;-85
2021/11/21 04:43:11;;;;;;;32.25;17.10;;;;;;;;;;5014997;28;20084;-85
2021/11/21 04:45:37;;;;;;;32.53;17.27;;;;;;;;;;5023115;28;20033;-84
2021/11/21 04:48:03;;;;;;;32.75;17.63;;;;;;;;;;5012903;28;20044;-78
2021/11/21 04:50:28;;;;;;;33.88;18.30;;;;;;;;;;5013069;28;20436;-84
2021/11/21 04:52:54;;;;;;;39.95;18.88;;;;;;;;;;5010797;28;20037;-85
2021/11/21 04:55:20;;;;;;;35.95;18.95;;;;;;;;;;5013033;28;20029;-81
2021/11/21 04:57:45;;;;;;;36.25;19.20;;;;;;;;;;5012825;28;20066;-85
2021/11/21 05:00:15;;;;;;;39.30;19.55;;;;;;;;;;5011640;28;20034;-84
2021/11/21 05:02:43;;;;;;;31.73;17.80;;;;;;;;;;5012300;28;20025;-81
2021/11/21 05:05:09;;;;;;;38.60;19.25;;;;;;;;;;5012590;28;20029;-80
2021/11/21 05:07:35;;;;;;;33.67;18.33;;;;;;;;;;5002272;28;20030;-85
2021/11/21 05:10:00;;;;;;;36.25;18.35;;;;;;;;;;5012498;28;20029;-77
2021/11/21 05:12:25;;;;;;;35.25;18.77;;;;;;;;;;5011495;28;20034;-78
2021/11/21 05:14:53;;;;;;;33.17;17.98;;;;;;;;;;5013278;28;20017;-85
2021/11/21 05:17:18;;;;;;;32.65;17.90;;;;;;;;;;5012174;28;20030;-82
2021/11/21 05:19:43;;;;;;;30.88;16.17;;;;;;;;;;5010451;28;20018;-77
2021/11/21 05:22:09;;;;;;;29.50;15.77;;;;;;;;;;5012117;28;20028;-80
2021/11/21 05:24:34;;;;;;;25.58;14.75;;;;;;;;;;5012240;28;20053;-85
2021/11/21 05:26:59;;;;;;;26.95;14.85;;;;;;;;;;5012025;28;20152;-86
2021/11/21 05:29:25;;;;;;;27.25;14.98;;;;;;;;;;5011433;28;20033;-80
2021/11/21 05:31:50;;;;;;;25.45;14.77;;;;;;;;;;5011377;28;20034;-78
2021/11/21 05:34:15;;;;;;;24.10;14.23;;;;;;;;;;5009226;28;20036;-80
2021/11/21 05:36:41;;;;;;;25.88;14.65;;;;;;;;;;5014776;28;20370;-80
2021/11/21 05:39:09;;;;;;;25.52;14.93;;;;;;;;;;5011053;28;20026;-79
2021/11/21 05:41:34;;;;;;;27.33;14.48;;;;;;;;;;5018733;28;20037;-81
2021/11/21 05:43:59;;;;;;;26.63;14.90;;;;;;;;;;5008724;28;20022;-79
2021/11/21 05:46:24;;;;;;;26.77;13.73;;;;;;;;;;5010998;28;20053;-77
2021/11/21 05:48:53;;;;;;;23.95;13.45;;;;;;;;;;5011848;28;20393;-77
2021/11/21 05:51:18;;;;;;;23.52;13.85;;;;;;;;;;5012106;28;20384;-82
2021/11/21 05:53:43;;;;;;;21.42;12.85;;;;;;;;;;5004625;28;20026;-81
2021/11/21 05:56:09;;;;;;;22.27;12.35;;;;;;;;;;5009594;28;20042;-85
2021/11/21 05:58:34;;;;;;;20.10;12.40;;;;;;;;;;5009438;28;20030;-80
2021/11/21 06:00:59;;;;;;;20.15;12.05;;;;;;;;;;5019403;28;20378;-77
2021/11/21 06:03:25;;;;;;;21.25;11.85;;;;;;;;;;5011387;28;20100;-80
2021/11/21 06:05:50;;;;;;;23.42;12.82;;;;;;;;;;5011421;28;20057;-80
2021/11/21 06:08:15;;;;;;;18.05;10.98;;;;;;;;;;5009995;28;20429;-84
2021/11/21 06:10:41;;;;;;;21.95;11.13;;;;;;;;;;5007870;28;20095;-81
2021/11/21 06:13:08;;;;;;;21.33;10.68;;;;;;;;;;5008993;28;20041;-81
2021/11/21 06:15:33;;;;;;;18.35;10.55;;;;;;;;;;5012107;28;20022;-85
2021/11/21 06:17:58;;;;;;;17.17;10.40;;;;;;;;;;5012554;28;20350;-86
2021/11/21 06:20:23;;;;;;;16.17;9.52;;;;;;;;;;5008197;28;20026;-77
2021/11/21 06:22:49;;;;;;;16.98;9.38;;;;;;;;;;5003672;28;20026;-80
2021/11/21 06:25:14;;;;;;;16.40;9.45;;;;;;;;;;5012168;28;20030;-85
2021/11/21 06:27:40;;;;;;;13.48;8.40;;;;;;;;;;5010975;28;20066;-81
2021/11/21 06:30:07;;;;;;;14.70;8.48;;;;;;;;;;5010722;28;20507;-77
2021/11/21 06:32:33;;;;;;;14.30;8.45;;;;;;;;;;5009590;28;20026;-81
2021/11/21 06:34:58;;;;;;;13.25;8.35;;;;;;;;;;5007614;28;20157;-78
2021/11/21 06:37:24;;;;;;;13.40;8.10;;;;;;;;;;5012646;28;20055;-78
2021/11/21 06:39:49;;;;;;;13.82;7.47;;;;;;;;;;5011101;28;20030;-77
2021/11/21 06:42:15;;;;;;;11.45;7.57;;;;;;;;;;5013530;28;20076;-82
2021/11/21 06:44:41;;;;;;;12.43;7.05;;;;;;;;;;5007189;28;20116;-77
2021/11/21 06:47:07;;;;;;;12.10;6.72;;;;;;;;;;5012339;28;20403;-77
2021/11/21 06:49:32;;;;;;;11.20;6.65;;;;;;;;;;5012593;28;20021;-79
2021/11/21 06:51:58;;;;;;;11.32;6.72;;;;;;;;;;5011040;28;20034;-80
2021/11/21 06:54:23;;;;;;;10.57;6.65;;;;;;;;;;5010595;28;20034;-86
2021/11/21 06:56:49;;;;;;;11.73;7.15;;;;;;;;;;5008363;28;20030;-80
2021/11/21 06:59:14;;;;;;;12.02;6.93;;;;;;;;;;5009837;28;20026;-79
2021/11/21 07:01:41;;;;;;;13.98;7.53;;;;;;;;;;5011453;28;20081;-85
2021/11/21 07:04:09;;;;;;;13.85;7.13;;;;;;;;;;5010178;28;20536;-77
2021/11/21 07:06:40;;;;;;;11.25;7.57;;;;;;;;;;5011787;28;20029;-79
2021/11/21 07:09:08;;;;;;;12.73;8.02;;;;;;;;;;5012146;28;20521;-85
2021/11/21 07:11:35;;;;;;;13.32;7.72;;;;;;;;;;5011437;28;20026;-81
2021/11/21 07:14:01;;;;;;;13.30;7.95;;;;;;;;;;5006499;28;20033;-80
2021/11/21 07:16:26;;;;;;;12.30;7.68;;;;;;;;;;5009429;28;20539;-81
2021/11/21 07:18:52;;;;;;;14.20;8.82;;;;;;;;;;5021971;28;20113;-80
2021/11/21 07:21:17;;;;;;;14.20;8.65;;;;;;;;;;5010708;28;20032;-85
2021/11/21 07:23:43;;;;;;;14.05;8.45;;;;;;;;;;5008619;28;20038;-82
2021/11/21 07:26:08;;;;;;;15.13;9.07;;;;;;;;;;5010912;28;20030;-81
2021/11/21 07:28:34;;;;;;;15.18;9.07;;;;;;;;;;5010400;28;20025;-84
2021/11/21 07:31:00;;;;;;;14.55;9.40;;;;;;;;;;5010941;28;20018;-80
2021/11/21 07:33:25;;;;;;;14.98;9.32;;;;;;;;;;5004742;28;20441;-77
2021/11/21 07:35:53;;;;;;;14.88;9.35;;;;;;;;;;5010356;28;20029;-81
2021/11/21 07:38:19;;;;;;;15.68;9.20;;;;;;;;;;5012624;28;20029;-78
2021/11/21 07:40:45;;;;;;;17.42;10.25;;;;;;;;;;5010948;28;20052;-81
2021/11/21 07:43:10;;;;;;;16.27;10.02;;;;;;;;;;5015073;28;20034;-81
2021/11/21 07:45:35;;;;;;;19.13;9.40;;;;;;;;;;5014239;28;20038;-80
2021/11/21 07:48:00;;;;;;;18.13;10.00;;;;;;;;;;5014120;28;20492;-85
2021/11/21 07:50:26;;;;;;;14.95;9.77;;;;;;;;;;5009797;28;20063;-81
2021/11/21 07:52:51;;;;;;;15.00;9.30;;;;;;;;;;5014150;28;20034;-80
2021/11/21 07:55:17;;;;;;;15.18;9.10;;;;;;;;;;5010628;28;20454;-81
2021/11/21 07:57:42;;;;;;;15.65;9.48;;;;;;;;;;5010645;28;20492;-77
2021/11/21 08:00:10;;;;;;;15.27;9.48;;;;;;;;;;5012875;28;20031;-78
2021/11/21 08:02:36;;;;;;;16.15;9.15;;;;;;;;;;5014515;28;20045;-80
2021/11/21 08:05:02;;;;;;;13.85;8.02;;;;;;;;;;5012694;28;20026;-76
2021/11/21 08:07:27;;;;;;;11.52;7.28;;;;;;;;;;5015175;28;20026;-81
2021/11/21 08:09:53;;;;;;;14.48;7.38;;;;;;;;;;5009041;28;20046;-85
2021/11/21 08:12:18;;;;;;;12.18;6.80;;;;;;;;;;5012974;28;20041;-78
2021/11/21 08:14:43;;;;;;;12.10;6.35;;;;;;;;;;5012941;28;20121;-85
2021/11/21 08:17:09;;;;;;;10.80;6.25;;;;;;;;;;5013096;28;20033;-85
2021/11/21 08:19:34;;;;;;;10.70;5.47;;;;;;;;;;5013010;28;20044;-80
2021/11/21 08:22:00;;;;;;;13.10;5.85;;;;;;;;;;5013276;28;20022;-77
2021/11/21 08:24:25;;;;;;;13.00;5.82;;;;;;;;;;5010608;28;20030;-77
2021/11/21 08:26:51;;;;;;;9.38;4.57;;;;;;;;;;5009404;28;20511;-80
2021/11/21 08:29:16;;;;;;;7.95;5.10;;;;;;;;;;5015745;28;20365;-79
2021/11/21 08:31:42;;;;;;;10.77;4.50;;;;;;;;;;5011671;28;20053;-80
2021/11/21 08:34:08;;;;;;;9.48;3.70;;;;;;;;;;5013181;28;20030;-77
2021/11/21 08:36:35;;;;;;;7.95;3.45;;;;;;;;;;5004823;28;20627;-81
2021/11/21 08:39:01;;;;;;;8.18;3.25;;;;;;;;;;5011997;28;20027;-78
2021/11/21 08:41:26;;;;;;;8.32;3.03;;;;;;;;;;5013448;28;20053;-77
2021/11/21 08:43:51;;;;;;;8.45;2.45;;;;;;;;;;5010709;28;20105;-78
2021/11/21 08:46:17;;;;;;;7.50;2.30;;;;;;;;;;5012411;28;20459;-84
2021/11/21 08:48:42;;;;;;;7.22;2.38;;;;;;;;;;5013583;28;20134;-80
2021/11/21 08:51:07;;;;;;;8.27;2.42;;;;;;;;;;5012802;28;20507;-78
2021/11/21 08:53:33;;;;;;;7.63;2.65;;;;;;;;;;5012377;28;20018;-84
2021/11/21 08:55:58;;;;;;;5.78;1.85;;;;;;;;;;5011379;28;20399;-81
2021/11/21 08:58:24;;;;;;;5.15;1.92;;;;;;;;;;5012518;28;20053;-80
2021/11/21 09:00:49;;;;;;;7.00;2.00;;;;;;;;;;5008349;28;20397;-85
2021/11/21 09:03:14;;;;;;;6.25;2.00;;;;;;;;;;5006800;28;20029;-77
2021/11/21 09:05:40;;;;;;;5.75;1.77;;;;;;;;;;5012287;28;20110;-77
2021/11/21 09:08:06;;;;;;;6.75;1.75;;;;;;;;;;5012537;28;20116;-84
2021/11/21 09:10:31;;;;;;;6.35;1.77;;;;;;;;;;5012282;28;20021;-82
2021/11/21 09:12:56;;;;;;;6.10;1.25;;;;;;;;;;5012307;28;20030;-85
2021/11/21 09:15:22;;;;;;;9.77;1.65;;;;;;;;;;5011039;28;20026;-81
2021/11/21 09:17:51;;;;;;;4.95;1.40;;;;;;;;;;5012016;28;20030;-82
2021/11/21 09:20:16;;;;;;;5.18;1.40;;;;;;;;;;5012936;28;20064;-86
2021/11/21 09:22:42;;;;;;;5.45;1.42;;;;;;;;;;5012636;28;20049;-77
2021/11/21 09:25:08;;;;;;;8.75;1.80;;;;;;;;;;5012009;28;20064;-80
2021/11/21 09:27:35;;;;;;;5.65;1.25;;;;;;;;;;5009416;28;20025;-85
2021/11/21 09:30:03;;;;;;;6.30;1.08;;;;;;;;;;5013568;28;20104;-85
2021/11/21 09:32:29;;;;;;;6.82;1.23;;;;;;;;;;5011842;28;20096;-84
2021/11/21 09:34:54;;;;;;;9.10;1.20;;;;;;;;;;4997177;28;20471;-82
2021/11/21 09:37:19;;;;;;;6.00;0.98;;;;;;;;;;5008641;28;20091;-82
2021/11/21 09:39:45;;;;;;;6.38;1.20;;;;;;;;;;5003905;28;20485;-85
2021/11/21 09:42:11;;;;;;;7.57;1.52;;;;;;;;;;5004379;28;20030;-86
2021/11/21 09:44:37;;;;;;;5.55;0.98;;;;;;;;;;5006467;28;20075;-80
2021/11/21 09:47:02;;;;;;;6.88;1.30;;;;;;;;;;5012148;28;20104;-80
2021/11/21 09:49:28;;;;;;;6.40;1.23;;;;;;;;;;5009616;28;20124;-79
2021/11/21 09:51:54;;;;;;;4.60;1.00;;;;;;;;;;5009653;28;20542;-78
2021/11/21 09:54:23;;;;;;;7.00;1.20;;;;;;;;;;5006835;28;20034;-85
2021/11/21 09:56:49;;;;;;;5.55;1.10;;;;;;;;;;5011101;28;20026;-82
2021/11/21 09:59:24;;;;;;;11.48;2.03;;;;;;;;;;5009601;28;20392;-84
2021/11/21 10:01:49;;;;;;;8.07;1.20;;;;;;;;;;5009888;28;20087;-86
2021/11/21 10:04:20;;;;;;;6.10;1.30;;;;;;;;;;5009814;28;20033;-77
2021/11/21 10:06:58;;;;;;;6.07;1.10;;;;;;;;;;5010314;28;20033;-78
2021/11/21 10:09:41;;;;;;;5.95;1.40;;;;;;;;;;5011074;28;20057;-84
2021/11/21 10:12:07;;;;;;;9.43;1.50;;;;;;;;;;5010455;28;20030;-85
2021/11/21 10:14:51;;;;;;;7.53;1.10;;;;;;;;;;5006777;28;20033;-78
2021/11/21 10:17:28;;;;;;;6.03;1.20;;;;;;;;;;5005223;28;20033;-86
2021/11/21 10:20:20;;;;;;;8.50;1.10;;;;;;;;;;5008306;28;20489;-85
2021/11/21 10:23:05;;;;;;;7.10;1.15;;;;;;;;;;5006445;28;20029;-80
2021/11/21 10:25:37;;;;;;;5.47;0.95;;;;;;;;;;5009853;28;20030;-82
2021/11/21 10:28:15;;;;;;;4.10;1.10;;;;;;;;;;5008905;28;21105;-84
2021/11/21 10:31:07;;;;;;;4.93;0.98;;;;;;;;;;5009075;28;20029;-80
2021/11/21 10:33:41;;;;;;;4.03;1.02;;;;;;;;;;5010102;28;20204;-81
2021/11/21 10:36:25;;;;;;;4.03;0.95;;;;;;;;;;5005852;28;20034;-79
2021/11/21 10:39:09;;;;;;;5.22;0.90;;;;;;;;;;5008584;28;20050;-78
2021/11/21 10:41:40;;;;;;;5.35;0.95;;;;;;;;;;5009766;28;20060;-86
2021/11/21 10:44:17;;;;;;;8.77;1.00;;;;;;;;;;5005105;28;20053;-84
2021/11/21 10:46:45;;;;;;;7.70;1.20;;;;;;;;;;5006373;28;20026;-77
2021/11/21 10:49:22;;;;;;;9.63;1.20;;;;;;;;;;5008770;28;20436;-79
2021/11/21 10:52:14;;;;;;;9.15;1.27;;;;;;;;;;5006647;28;20099;-80
2021/11/21 10:54:47;;;;;;;7.95;1.42;;;;;;;;;;5001626;28;20038;-83
2021/11/21 10:57:36;;;;;;;7.72;1.42;;;;;;;;;;5024063;28;20037;-81
2021/11/21 11:00:14;;;;;;;6.20;1.00;;;;;;;;;;4991872;28;20779;-81
2021/11/21 11:02:42;;;;;;;5.68;1.05;;;;;;;;;;5010099;28;20029;-80
2021/11/21 11:05:12;;;;;;;7.82;1.77;;;;;;;;;;5008353;28;20122;-82
2021/11/21 11:08:00;;;;;;;6.40;0.95;;;;;;;;;;5006023;28;20026;-82
2021/11/21 11:10:30;;;;;;;8.65;1.25;;;;;;;;;;4987957;28;20030;-81
2021/11/21 11:13:08;;;;;;;5.45;0.90;;;;;;;;;;4987616;28;20398;-81
2021/11/21 11:15:45;;;;;;;5.38;1.13;;;;;;;;;;5006757;28;20363;-82
2021/11/21 11:18:12;;;;;;;7.70;1.30;;;;;;;;;;4994309;28;20061;-78
2021/11/21 11:20:51;;;;;;;8.40;1.08;;;;;;;;;;4992229;28;20115;-81
2021/11/21 11:23:20;;;;;;;8.52;1.70;;;;;;;;;;5003429;28;20088;-81
2021/11/21 11:25:46;;;;;;;8.70;1.75;;;;;;;;;;4993602;28;20034;-81
2021/11/21 11:28:24;;;;;;;8.07;1.00;;;;;;;;;;5018125;28;20645;-81
2021/11/21 11:30:50;;;;;;;8.43;0.90;;;;;;;;;;4980087;28;20112;-81
2021/11/21 11:33:18;;;;;;;8.35;1.65;;;;;;;;;;4989663;28;20633;-81
2021/11/21 11:35:50;;;;;;;8.40;1.30;;;;;;;;;;5005667;28;20039;-83
2021/11/21 11:38:20;;;;;;;8.00;0.85;;;;;;;;;;4997420;28;20401;-81
2021/11/21 11:40:49;;;;;;;4.95;1.17;;;;;;;;;;5003143;28;20034;-80
2021/11/21 11:43:23;;;;;;;8.23;1.20;;;;;;;;;;5006817;28;20018;-78
2021/11/21 11:45:52;;;;;;;5.70;1.08;;;;;;;;;;4994448;28;20536;-78
2021/11/21 11:49:20;;;;;;;8.82;0.82;;;;;;;;;;5014092;28;20026;-81
2021/11/21 11:51:50;;;;;;;8.98;1.17;;;;;;;;;;4999079;28;20109;-80
2021/11/21 11:54:24;;;;;;;9.45;1.13;;;;;;;;;;5000126;28;21030;-81
2021/11/21 11:56:58;;;;;;;6.75;0.82;;;;;;;;;;4993682;28;20124;-83
2021/11/21 11:59:53;;;;;;;2.67;0.50;;;;;;;;;;4988853;28;20501;-77
2021/11/21 12:02:53;;;;;;;6.03;0.77;;;;;;;;;;5010422;28;20056;-82
2021/11/21 12:09:24;;;;;;;8.43;1.23;;;;;;;;;;5044109;23;20180;-84
2021/11/21 12:14:57;;;;;;;2.45;0.70;;;;;;;;;;5027749;28;20766;-77
2021/11/21 12:17:25;;;;;;;5.13;0.73;;;;;;;;;;5012950;28;20048;-83
2021/11/21 12:19:57;;;;;;;8.20;0.90;;;;;;;;;;5011746;28;20049;-82
2021/11/21 12:22:29;;;;;;;7.05;0.95;;;;;;;;;;5013931;28;20373;-81
2021/11/21 12:25:26;;;;;;;6.82;1.10;;;;;;;;;;5017904;28;20026;-81
2021/11/21 12:28:00;;;;;;;5.80;1.02;;;;;;;;;;5023897;28;20097;-79
2021/11/21 12:30:30;;;;;;;6.95;1.13;;;;;;;;;;5026861;28;20033;-77
2021/11/21 12:33:02;;;;;;;7.55;0.93;;;;;;;;;;5012476;28;20476;-85
2021/11/21 12:35:58;;;;;;;7.40;1.17;;;;;;;;;;4988393;28;20045;-81
2021/11/21 12:38:32;;;;;;;5.28;0.98;;;;;;;;;;4977177;28;20042;-82
2021/11/21 12:43:58;;;;;;;9.45;1.10;;;;;;;;;;4988096;28;20572;-82
2021/11/21 12:46:29;;;;;;;7.63;1.23;;;;;;;;;;4979741;28;20034;-85
2021/11/21 12:49:28;;;;;;;5.00;0.95;;;;;;;;;;4967776;28;20072;-82
2021/11/21 12:52:29;;;;;;;3.20;0.80;;;;;;;;;;4994537;28;20416;-78
2021/11/21 12:55:00;;;;;;;5.60;1.02;;;;;;;;;;4997971;28;20050;-83
2021/11/21 12:58:00;;;;;;;12.40;1.13;;;;;;;;;;4998898;28;20038;-84
2021/11/21 13:00:34;;;;;;;5.65;0.90;;;;;;;;;;5007580;28;20029;-80
2021/11/21 13:03:04;;;;;;;5.93;0.90;;;;;;;;;;4990120;28;20929;-84
2021/11/21 13:05:36;;;;;;;5.97;0.70;;;;;;;;;;4991302;28;20026;-85
2021/11/21 13:08:03;;;;;;;6.05;1.10;;;;;;;;;;5035469;28;20057;-81
2021/11/21 13:10:41;;;;;;;6.53;0.77;;;;;;;;;;5023487;28;20039;-81
2021/11/21 13:13:07;;;;;;;4.57;0.80;;;;;;;;;;5010660;28;20040;-81
2021/11/21 13:15:34;;;;;;;6.97;0.73;;;;;;;;;;5032651;28;20049;-79
2021/11/21 13:18:04;;;;;;;5.47;0.95;;;;;;;;;;5016144;28;20048;-81
2021/11/21 13:20:33;;;;;;;5.55;0.70;;;;;;;;;;5011346;28;20127;-79
2021/11/21 13:23:06;;;;;;;6.28;0.60;;;;;;;;;;5012302;28;20025;-85
2021/11/21 13:25:40;;;;;;;5.07;0.82;;;;;;;;;;5016941;28;20025;-81
2021/11/21 13:28:38;;;;;;;4.82;0.68;;;;;;;;;;5009290;28;20037;-82
2021/11/21 13:31:27;;;;;;;6.20;0.85;;;;;;;;;;5017251;28;20032;-81
2021/11/21 13:34:07;;;;;;;5.22;0.73;;;;;;;;;;5023347;28;20528;-81
2021/11/21 13:36:37;;;;;;;9.57;1.52;;;;;;;;;;5038687;28;20124;-81
2021/11/21 13:39:10;;;;;;;8.13;1.20;;;;;;;;;;5029079;28;20028;-81
2021/11/21 13:41:39;;;;;;;6.00;0.50;;;;;;;;;;5023217;28;20029;-81
2021/11/21 13:50:37;;;;;;;5.18;0.88;;;;;;;;;;4961000;28;20038;-81
2021/11/21 13:53:08;;;;;;;5.45;0.63;;;;;;;;;;4957537;28;20034;-77
2021/11/21 13:55:40;;;;;;;5.97;0.60;;;;;;;;;;5020164;28;20510;-83
2021/11/21 13:58:08;;;;;;;4.80;0.95;;;;;;;;;;5024829;28;20029;-81
2021/11/21 14:00:40;;;;;;;5.47;0.70;;;;;;;;;;5042522;28;20060;-81
2021/11/21 14:03:19;;;;;;;5.75;0.60;;;;;;;;;;5028653;28;20032;-84
2021/11/21 14:05:46;;;;;;;3.28;0.60;;;;;;;;;;5025630;28;20041;-80
2021/11/21 14:08:12;;;;;;;5.70;0.70;;;;;;;;;;5030574;28;20056;-79
2021/11/21 14:10:41;;;;;;;4.88;0.60;;;;;;;;;;5022877;28;20053;-81
2021/11/21 14:13:18;;;;;;;3.85;0.50;;;;;;;;;;5031040;28;20026;-81
2021/11/21 14:15:44;;;;;;;3.60;0.60;;;;;;;;;;5051507;28;20036;-81
2021/11/21 14:18:13;;;;;;;3.10;0.57;;;;;;;;;;5031645;28;20025;-80
2021/11/21 14:20:50;;;;;;;8.30;0.88;;;;;;;;;;5031411;28;20055;-81
2021/11/21 14:23:18;;;;;;;2.63;0.50;;;;;;;;;;5043193;28;20147;-78
2021/11/21 14:25:46;;;;;;;7.47;1.23;;;;;;;;;;5024024;28;20033;-84
2021/11/21 14:28:20;;;;;;;2.28;0.63;;;;;;;;;;5030124;28;20504;-80
2021/11/21 14:30:51;;;;;;;6.47;0.68;;;;;;;;;;5031117;28;20025;-80
2021/11/21 14:33:20;;;;;;;3.53;0.77;;;;;;;;;;5032099;28;20031;-80
2021/11/21 14:35:47;;;;;;;9.30;1.00;;;;;;;;;;5047198;28;20037;-76
2021/11/21 14:38:16;;;;;;;5.57;0.80;;;;;;;;;;5049387;28;20033;-84
2021/11/21 14:41:33;;;;;;;;;;;;;;;;;;;;;
2021/11/21 14:44:21;;;;;;;5.88;0.90;;;;;;;;;;5039306;28;20037;-85
2021/11/21 14:46:47;;;;;;;5.53;0.70;;;;;;;;;;5049774;28;20498;-79
2021/11/21 14:49:18;;;;;;;7.80;0.80;;;;;;;;;;5049862;28;20032;-84
2021/11/21 14:51:49;;;;;;;5.15;0.90;;;;;;;;;;5025535;28;20033;-76
2021/11/21 14:54:21;;;;;;;3.65;0.77;;;;;;;;;;5028391;28;20435;-84
2021/11/21 14:56:58;;;;;;;9.55;1.08;;;;;;;;;;5045723;28;20063;-82
2021/11/21 14:59:23;;;;;;;5.43;0.82;;;;;;;;;;5023853;28;20037;-80
2021/11/21 15:01:50;;;;;;;4.35;0.80;;;;;;;;;;5035538;28;20083;-82
2021/11/21 15:04:21;;;;;;;5.32;0.75;;;;;;;;;;5038190;28;20063;-85